Time;durP1;ratioP1;P1;durP2;ratioP2;P2;SDS_P1;SDS_P2;PMS_P1;PMS_P2;Temp;Humidity;BMP_temperature;BMP_pressure;BME280_temperature;BME280_humidity;BME280_pressure;Samples;Min_cycle;Max_cycle;Signal;HPM_P1;HPM_P2
2021/05/12 00:01:15;;;;;;;8.53;6.57;;;12.80;99.90;;;;;;6203170;23;20184;-66
2021/05/12 00:03:43;;;;;;;8.00;7.20;;;12.70;99.90;;;;;;6197976;22;20595;-66
2021/05/12 00:06:09;;;;;;;7.60;6.60;;;12.70;99.90;;;;;;6195514;22;20179;-66
2021/05/12 00:08:38;;;;;;;7.90;6.90;;;12.70;99.90;;;;;;6199809;23;20587;-67
2021/05/12 00:11:05;;;;;;;8.77;7.97;;;12.70;99.90;;;;;;6200330;23;20620;-66
2021/05/12 00:13:33;;;;;;;8.17;7.23;;;12.70;99.90;;;;;;6201800;23;20666;-66
2021/05/12 00:15:58;;;;;;;8.53;7.73;;;12.70;99.90;;;;;;6202646;23;20944;-66
2021/05/12 00:18:27;;;;;;;7.90;7.10;;;12.70;99.90;;;;;;6176430;23;20600;-66
2021/05/12 00:20:52;;;;;;;8.80;7.50;;;12.60;99.90;;;;;;6204154;22;20574;-66
2021/05/12 00:23:25;;;;;;;8.60;7.70;;;12.60;99.90;;;;;;6169524;23;20640;-66
2021/05/12 00:25:51;;;;;;;9.50;8.17;;;12.60;99.90;;;;;;6197019;22;20199;-66
2021/05/12 00:28:16;;;;;;;8.40;7.57;;;12.60;99.90;;;;;;6202503;23;20540;-66
2021/05/12 00:30:44;;;;;;;11.57;8.60;;;12.60;99.90;;;;;;6200726;23;20164;-66
2021/05/12 00:33:11;;;;;;;9.23;8.23;;;12.60;99.90;;;;;;6194546;23;20492;-68
2021/05/12 00:35:37;;;;;;;8.47;7.23;;;12.60;99.90;;;;;;6174453;22;21333;-66
2021/05/12 00:38:03;;;;;;;8.60;7.80;;;12.50;99.90;;;;;;6199965;23;20601;-66
2021/05/12 00:40:28;;;;;;;9.80;8.70;;;12.60;99.90;;;;;;6174520;23;20160;-66
2021/05/12 00:42:54;;;;;;;9.00;8.17;;;12.50;99.90;;;;;;6189896;23;20212;-66
2021/05/12 00:45:21;;;;;;;11.13;8.13;;;12.60;99.90;;;;;;6183103;22;20204;-66
2021/05/12 00:47:50;;;;;;;9.93;8.60;;;12.50;99.90;;;;;;6169251;23;20251;-64
2021/05/12 00:50:22;;;;;;;9.27;8.20;;;12.50;99.90;;;;;;6174014;23;20599;-66
2021/05/12 00:52:48;;;;;;;8.63;7.60;;;12.50;99.90;;;;;;6200850;23;20616;-64
2021/05/12 00:55:16;;;;;;;8.90;7.60;;;12.50;99.90;;;;;;6170359;22;20588;-63
2021/05/12 00:57:43;;;;;;;9.17;8.27;;;12.40;99.90;;;;;;6173534;23;20213;-64
2021/05/12 01:00:11;;;;;;;8.93;7.77;;;12.50;99.90;;;;;;6196995;23;20568;-63
2021/05/12 01:02:37;;;;;;;9.90;7.40;;;12.50;99.90;;;;;;6171265;23;20966;-64
2021/05/12 01:05:04;;;;;;;9.50;8.00;;;12.50;99.90;;;;;;6169775;22;20614;-64
2021/05/12 01:07:32;;;;;;;8.70;7.47;;;12.50;99.90;;;;;;6148424;23;20663;-64
2021/05/12 01:09:58;;;;;;;9.87;7.87;;;12.40;99.90;;;;;;6200761;23;20591;-64
2021/05/12 01:12:24;;;;;;;9.03;7.37;;;12.40;99.90;;;;;;6196860;23;20561;-64
2021/05/12 01:14:52;;;;;;;10.50;8.27;;;12.40;99.90;;;;;;6196522;22;20196;-63
2021/05/12 01:17:17;;;;;;;8.37;7.50;;;12.40;99.90;;;;;;6196117;23;20168;-65
2021/05/12 01:19:43;;;;;;;9.63;7.20;;;12.40;99.90;;;;;;6175228;23;20898;-65
2021/05/12 01:22:11;;;;;;;10.87;7.20;;;12.40;99.90;;;;;;6169527;23;20481;-64
2021/05/12 01:24:37;;;;;;;8.13;7.23;;;12.40;99.90;;;;;;6193753;23;20553;-65
2021/05/12 01:27:07;;;;;;;9.70;7.00;;;12.40;99.90;;;;;;6202120;23;20670;-64
2021/05/12 01:29:33;;;;;;;8.67;6.93;;;12.40;99.90;;;;;;6204634;22;21171;-65
2021/05/12 01:31:58;;;;;;;7.27;6.57;;;12.50;99.90;;;;;;6198673;22;20596;-64
2021/05/12 01:34:24;;;;;;;7.70;6.37;;;12.50;99.90;;;;;;6199046;22;20271;-65
2021/05/12 01:36:51;;;;;;;8.83;6.50;;;12.50;99.90;;;;;;6197471;23;20194;-64
2021/05/12 01:39:17;;;;;;;7.70;6.30;;;12.50;99.90;;;;;;6202195;23;20171;-64
2021/05/12 01:41:43;;;;;;;7.87;6.03;;;12.50;99.90;;;;;;6202489;22;20532;-63
2021/05/12 01:44:10;;;;;;;6.57;5.83;;;12.50;99.90;;;;;;6199037;22;20780;-65
2021/05/12 01:46:42;;;;;;;6.77;5.77;;;12.50;99.90;;;;;;6197425;23;20176;-65
2021/05/12 01:49:11;;;;;;;5.80;5.20;;;12.50;99.90;;;;;;6201025;23;20555;-65
2021/05/12 01:51:38;;;;;;;6.70;6.00;;;12.50;99.90;;;;;;6174705;23;20560;-65
2021/05/12 01:54:07;;;;;;;6.70;6.00;;;12.60;99.90;;;;;;6194978;23;20590;-65
2021/05/12 01:56:35;;;;;;;6.27;5.67;;;12.60;99.90;;;;;;6194471;23;20671;-65
2021/05/12 01:59:02;;;;;;;6.47;5.90;;;12.50;99.90;;;;;;6195278;23;20570;-65
2021/05/12 02:08:00;;;;;;;7.33;5.90;;;12.70;99.90;;;;;;6203926;22;20686;-64
2021/05/12 02:10:29;;;;;;;8.13;6.00;;;12.50;99.90;;;;;;6162969;23;20665;-64
2021/05/12 02:12:58;;;;;;;8.83;6.57;;;12.50;99.90;;;;;;6187455;23;20529;-64
2021/05/12 02:15:24;;;;;;;7.00;6.00;;;12.50;99.90;;;;;;6155673;23;20561;-63
2021/05/12 02:17:51;;;;;;;6.83;5.90;;;12.50;99.90;;;;;;6216706;23;20552;-64
2021/05/12 02:20:25;;;;;;;6.43;5.73;;;12.50;99.90;;;;;;6217976;23;20574;-65
2021/05/12 02:22:51;;;;;;;7.27;6.27;;;12.40;99.90;;;;;;6204942;23;21056;-65
2021/05/12 02:25:17;;;;;;;8.17;6.23;;;12.50;99.90;;;;;;6175782;23;20586;-64
2021/05/12 02:27:43;;;;;;;6.43;5.63;;;12.60;99.90;;;;;;6209862;23;20182;-63
2021/05/12 02:30:10;;;;;;;7.47;6.00;;;12.70;99.90;;;;;;6207426;23;20591;-63
2021/05/12 02:32:37;;;;;;;6.53;5.70;;;12.60;99.90;;;;;;6175140;23;20163;-64
2021/05/12 02:35:07;;;;;;;9.27;6.40;;;12.60;99.90;;;;;;6202584;23;20641;-64
2021/05/12 02:37:33;;;;;;;7.80;6.57;;;12.50;99.90;;;;;;6198508;23;20658;-63
2021/05/12 02:39:59;;;;;;;9.57;8.07;;;12.50;99.90;;;;;;6195280;23;20574;-63
2021/05/12 02:42:25;;;;;;;10.90;9.80;;;12.50;99.90;;;;;;6199576;23;20209;-64
2021/05/12 02:44:51;;;;;;;10.57;9.47;;;12.50;99.90;;;;;;6170783;23;20690;-63
2021/05/12 02:47:17;;;;;;;10.50;9.40;;;12.50;99.90;;;;;;6194626;23;20603;-64
2021/05/12 02:49:45;;;;;;;12.57;11.37;;;12.50;99.90;;;;;;6175518;23;20196;-63
2021/05/12 02:52:11;;;;;;;12.93;11.37;;;12.40;99.90;;;;;;6200214;22;20220;-67
2021/05/12 02:54:36;;;;;;;12.80;11.50;;;12.40;99.90;;;;;;6173964;22;20989;-63
2021/05/12 02:57:03;;;;;;;13.13;11.80;;;12.40;99.90;;;;;;6198321;23;20173;-64
2021/05/12 02:59:29;;;;;;;14.20;12.70;;;12.40;99.90;;;;;;6173206;22;20250;-67
2021/05/12 03:01:55;;;;;;;15.60;14.00;;;12.40;99.90;;;;;;6199481;23;20967;-67
2021/05/12 03:04:21;;;;;;;16.13;14.50;;;12.50;99.90;;;;;;6171952;23;20657;-67
2021/05/12 03:06:49;;;;;;;16.60;14.53;;;12.40;99.90;;;;;;6200256;23;20180;-67
2021/05/12 03:09:15;;;;;;;17.10;15.37;;;12.40;99.90;;;;;;6170132;23;20196;-67
2021/05/12 03:11:44;;;;;;;16.27;14.57;;;12.40;99.90;;;;;;6199286;23;20569;-67
2021/05/12 03:14:09;;;;;;;15.90;14.30;;;12.40;99.90;;;;;;6174096;23;20224;-67
2021/05/12 03:16:36;;;;;;;17.00;15.30;;;12.50;99.90;;;;;;6198304;23;20578;-66
2021/05/12 03:19:04;;;;;;;17.10;15.30;;;12.50;99.90;;;;;;6203083;23;20624;-67
2021/05/12 03:21:32;;;;;;;17.10;15.40;;;12.50;99.90;;;;;;6198931;23;20563;-68
2021/05/12 03:23:57;;;;;;;17.80;15.90;;;12.60;99.90;;;;;;6170155;23;20657;-67
2021/05/12 03:26:23;;;;;;;18.30;16.10;;;12.60;99.90;;;;;;6198781;23;21013;-67
2021/05/12 03:28:48;;;;;;;18.00;14.80;;;12.60;99.90;;;;;;6196020;23;20191;-67
2021/05/12 03:31:14;;;;;;;18.33;16.33;;;12.60;99.90;;;;;;6200289;23;20159;-66
2021/05/12 03:33:40;;;;;;;18.80;16.57;;;12.60;99.90;;;;;;6201815;23;20192;-67
2021/05/12 03:36:07;;;;;;;17.97;16.17;;;12.50;99.90;;;;;;6173431;22;20883;-67
2021/05/12 03:38:33;;;;;;;19.70;17.70;;;12.50;99.90;;;;;;6171982;22;20571;-67
2021/05/12 03:40:59;;;;;;;17.43;15.73;;;12.50;99.90;;;;;;6201974;23;20538;-67
2021/05/12 03:43:25;;;;;;;18.60;16.30;;;12.60;99.90;;;;;;6202937;23;20620;-67
2021/05/12 03:45:51;;;;;;;17.97;15.47;;;12.60;99.90;;;;;;6169665;22;20204;-68
2021/05/12 03:48:16;;;;;;;19.23;15.70;;;12.50;99.90;;;;;;6172274;22;20670;-67
2021/05/12 03:50:42;;;;;;;21.20;16.67;;;12.50;99.90;;;;;;6200391;23;20160;-66
2021/05/12 03:53:08;;;;;;;18.80;15.77;;;12.50;99.90;;;;;;6203384;23;20615;-66
2021/05/12 03:55:35;;;;;;;18.47;16.43;;;12.50;99.90;;;;;;6201404;23;20631;-66
2021/05/12 03:58:01;;;;;;;20.47;17.33;;;12.40;99.90;;;;;;6197233;23;20520;-66
2021/05/12 04:00:27;;;;;;;18.07;16.03;;;12.50;99.90;;;;;;6172229;22;20647;-67
2021/05/12 04:02:52;;;;;;;19.00;16.63;;;12.50;99.90;;;;;;6197582;23;20669;-67
2021/05/12 04:05:18;;;;;;;19.47;17.17;;;12.50;99.90;;;;;;6176062;22;20157;-66
2021/05/12 04:07:46;;;;;;;20.87;16.37;;;12.50;99.90;;;;;;6172135;23;20641;-66
2021/05/12 04:10:15;;;;;;;22.63;17.00;;;12.50;99.90;;;;;;6202858;23;20944;-67
2021/05/12 04:12:43;;;;;;;20.20;17.13;;;12.50;99.90;;;;;;6203267;23;20952;-67
2021/05/12 04:15:09;;;;;;;18.93;15.03;;;12.50;99.90;;;;;;6173189;23;20622;-67
2021/05/12 04:17:36;;;;;;;19.03;16.70;;;12.50;99.90;;;;;;6200860;23;20571;-67
2021/05/12 04:20:05;;;;;;;19.50;17.17;;;12.50;99.90;;;;;;6204369;23;20619;-67
2021/05/12 04:22:33;;;;;;;19.87;16.10;;;12.40;99.90;;;;;;6199013;22;20664;-67
2021/05/12 04:25:03;;;;;;;19.57;15.50;;;12.40;99.90;;;;;;6198952;23;20599;-67
2021/05/12 04:27:29;;;;;;;21.30;16.00;;;12.40;99.90;;;;;;6168443;23;20928;-67
2021/05/12 04:29:58;;;;;;;18.13;15.70;;;12.60;99.90;;;;;;6202993;23;20591;-67
2021/05/12 04:32:24;;;;;;;19.80;15.03;;;12.70;99.90;;;;;;6198410;23;20646;-68
2021/05/12 04:34:49;;;;;;;17.30;14.40;;;12.60;99.90;;;;;;6204410;23;20667;-67
2021/05/12 04:37:15;;;;;;;19.50;15.63;;;12.60;99.90;;;;;;6199298;23;20564;-66
2021/05/12 04:39:41;;;;;;;19.07;15.47;;;12.60;99.90;;;;;;6201113;23;20366;-67
2021/05/12 04:42:06;;;;;;;17.70;14.27;;;12.60;99.90;;;;;;6202781;23;20606;-67
2021/05/12 04:44:32;;;;;;;17.57;14.73;;;12.50;99.90;;;;;;6173707;23;20265;-67
2021/05/12 04:46:58;;;;;;;17.80;13.60;;;12.50;99.90;;;;;;6198407;23;20579;-67
2021/05/12 04:49:25;;;;;;;17.30;13.47;;;12.60;99.90;;;;;;6198392;23;20179;-67
2021/05/12 04:51:51;;;;;;;15.13;12.43;;;12.50;99.90;;;;;;6202792;23;20504;-67
2021/05/12 04:54:17;;;;;;;17.67;13.70;;;12.70;99.90;;;;;;6201321;23;20678;-67
2021/05/12 04:56:42;;;;;;;18.00;13.30;;;12.70;99.90;;;;;;6201178;23;20217;-67
2021/05/12 04:59:08;;;;;;;15.53;12.90;;;12.70;99.90;;;;;;6176286;23;20174;-66
2021/05/12 05:01:34;;;;;;;17.83;14.37;;;12.80;99.90;;;;;;6173445;22;20504;-67
2021/05/12 05:04:02;;;;;;;17.83;14.20;;;12.70;99.90;;;;;;6203378;23;20602;-67
2021/05/12 05:06:28;;;;;;;18.30;13.80;;;12.80;99.90;;;;;;6175687;23;20184;-67
2021/05/12 05:08:56;;;;;;;16.57;13.67;;;12.80;99.90;;;;;;6199146;23;20685;-67
2021/05/12 05:11:22;;;;;;;17.80;13.43;;;12.80;99.90;;;;;;6172549;23;20172;-67
2021/05/12 05:13:47;;;;;;;15.70;14.00;;;12.90;99.90;;;;;;6193558;23;20595;-67
2021/05/12 05:16:13;;;;;;;16.53;13.70;;;12.80;99.90;;;;;;6195096;23;20631;-67
2021/05/12 05:18:39;;;;;;;16.93;14.37;;;12.80;99.90;;;;;;6199614;23;20169;-67
2021/05/12 05:21:07;;;;;;;17.30;13.83;;;12.80;99.90;;;;;;6204004;23;20576;-67
2021/05/12 05:23:34;;;;;;;18.40;13.63;;;12.90;99.90;;;;;;6172430;22;20216;-67
2021/05/12 05:26:00;;;;;;;17.10;14.40;;;12.90;99.90;;;;;;6198375;23;20583;-67
2021/05/12 05:28:25;;;;;;;16.37;13.47;;;12.90;99.90;;;;;;6199283;23;20547;-67
2021/05/12 05:30:53;;;;;;;16.37;13.50;;;13.00;99.90;;;;;;6202786;23;20161;-67
2021/05/12 05:33:19;;;;;;;16.20;13.70;;;13.00;99.90;;;;;;6171481;23;20268;-67
2021/05/12 05:35:47;;;;;;;18.00;13.43;;;13.00;99.90;;;;;;6161995;22;21139;-68
2021/05/12 05:38:15;;;;;;;14.43;12.23;;;13.00;99.90;;;;;;6194821;23;20157;-68
2021/05/12 05:40:43;;;;;;;15.23;13.60;;;12.90;99.90;;;;;;6183988;23;21072;-68
2021/05/12 05:43:13;;;;;;;14.10;12.60;;;12.90;99.90;;;;;;6191015;23;20560;-67
2021/05/12 05:45:41;;;;;;;17.10;13.83;;;12.90;99.90;;;;;;6184784;23;20934;-67
2021/05/12 05:48:11;;;;;;;13.40;12.00;;;12.80;99.90;;;;;;6170511;22;20556;-67
2021/05/12 05:50:38;;;;;;;15.50;11.93;;;12.90;99.90;;;;;;6195628;23;20531;-67
2021/05/12 05:53:04;;;;;;;13.77;12.27;;;12.90;99.90;;;;;;6195583;23;20605;-67
2021/05/12 05:55:30;;;;;;;16.50;12.07;;;13.00;99.90;;;;;;6199935;23;20867;-67
2021/05/12 05:57:56;;;;;;;16.00;11.80;;;13.00;99.90;;;;;;6203251;23;20603;-67
2021/05/12 06:00:22;;;;;;;15.40;12.43;;;12.90;99.90;;;;;;6201943;23;20548;-67
2021/05/12 06:02:48;;;;;;;13.00;11.57;;;12.90;99.90;;;;;;6197171;23;20527;-67
2021/05/12 06:05:14;;;;;;;13.10;11.00;;;12.90;99.90;;;;;;6194532;23;20595;-67
2021/05/12 06:07:41;;;;;;;12.30;11.00;;;12.90;99.90;;;;;;6199934;23;21088;-66
2021/05/12 06:10:08;;;;;;;13.77;11.57;;;12.90;99.90;;;;;;6201716;23;20686;-68
2021/05/12 06:12:33;;;;;;;13.60;12.00;;;13.00;99.90;;;;;;6201402;23;20532;-67
2021/05/12 06:14:59;;;;;;;13.90;11.60;;;13.00;99.90;;;;;;6176332;23;20676;-67
2021/05/12 06:17:26;;;;;;;16.63;11.03;;;13.00;99.90;;;;;;6173902;22;20206;-67
2021/05/12 06:19:52;;;;;;;13.70;12.30;;;13.00;99.90;;;;;;6203333;23;20563;-67
2021/05/12 06:22:18;;;;;;;12.93;11.57;;;13.00;99.90;;;;;;6202209;23;20535;-67
2021/05/12 06:24:44;;;;;;;11.53;10.40;;;13.10;99.90;;;;;;6171800;23;20592;-67
2021/05/12 06:27:10;;;;;;;12.93;11.00;;;13.00;99.90;;;;;;6202712;23;20180;-66
2021/05/12 06:29:38;;;;;;;13.43;10.43;;;13.00;99.90;;;;;;6205150;23;20670;-66
2021/05/12 06:32:07;;;;;;;12.83;11.53;;;13.10;99.90;;;;;;6199842;23;20531;-66
2021/05/12 06:34:34;;;;;;;14.33;10.33;;;13.10;99.90;;;;;;6199678;23;20587;-66
2021/05/12 06:37:00;;;;;;;11.63;10.13;;;13.10;99.90;;;;;;6201861;22;20575;-66
2021/05/12 06:39:25;;;;;;;12.07;9.83;;;13.20;99.90;;;;;;6200540;23;21055;-67
2021/05/12 06:41:51;;;;;;;12.60;10.77;;;13.30;99.90;;;;;;6201043;23;20450;-66
2021/05/12 06:44:19;;;;;;;11.27;10.13;;;13.20;99.90;;;;;;6203841;23;20231;-66
2021/05/12 06:46:45;;;;;;;12.93;10.37;;;13.10;99.90;;;;;;6202999;23;20582;-66
2021/05/12 06:49:10;;;;;;;10.93;9.83;;;13.20;99.90;;;;;;6200623;23;20631;-66
2021/05/12 06:51:36;;;;;;;10.03;9.03;;;13.20;99.90;;;;;;6201385;23;20616;-66
2021/05/12 06:54:01;;;;;;;11.07;9.37;;;13.20;99.90;;;;;;6204765;23;20211;-66
2021/05/12 06:56:27;;;;;;;12.67;9.67;;;13.20;99.90;;;;;;6199819;23;20180;-66
2021/05/12 06:58:53;;;;;;;11.60;10.43;;;13.20;99.90;;;;;;6206883;23;20160;-65
2021/05/12 07:01:20;;;;;;;11.83;9.80;;;13.20;99.90;;;;;;6205990;23;20168;-65
2021/05/12 07:03:45;;;;;;;10.20;9.20;;;13.30;99.90;;;;;;6186056;22;20283;-66
2021/05/12 07:06:11;;;;;;;12.10;9.60;;;13.30;99.90;;;;;;6187883;22;20595;-66
2021/05/12 07:08:37;;;;;;;11.90;10.03;;;13.40;99.90;;;;;;6216896;23;20210;-66
2021/05/12 07:11:04;;;;;;;11.20;10.03;;;13.40;99.90;;;;;;6213420;23;20191;-66
2021/05/12 07:13:32;;;;;;;13.07;9.33;;;13.50;99.90;;;;;;6213104;23;20718;-66
2021/05/12 07:16:01;;;;;;;12.63;10.00;;;13.50;99.90;;;;;;6216018;23;20575;-67
2021/05/12 07:18:29;;;;;;;11.20;9.97;;;13.40;99.90;;;;;;6217631;23;20534;-66
2021/05/12 07:20:55;;;;;;;12.37;10.27;;;13.40;99.90;;;;;;6216297;22;20551;-66
2021/05/12 07:23:22;;;;;;;17.73;10.70;;;13.30;99.90;;;;;;6210646;23;20586;-66
2021/05/12 07:25:49;;;;;;;12.97;11.60;;;13.30;99.90;;;;;;6216966;23;20172;-66
2021/05/12 07:28:15;;;;;;;12.70;11.40;;;13.30;99.90;;;;;;6219519;22;20527;-66
2021/05/12 07:30:44;;;;;;;17.10;12.80;;;13.30;99.90;;;;;;6217991;22;20535;-68
2021/05/12 07:33:10;;;;;;;13.07;11.77;;;13.30;99.90;;;;;;6220330;23;20523;-66
2021/05/12 07:35:36;;;;;;;14.47;10.93;;;13.40;99.90;;;;;;6220455;22;20608;-66
2021/05/12 07:38:02;;;;;;;12.43;11.13;;;13.40;99.90;;;;;;6205959;23;20168;-66
2021/05/12 07:40:33;;;;;;;13.73;12.33;;;13.50;99.90;;;;;;6206363;23;20235;-66
2021/05/12 07:43:00;;;;;;;14.90;12.40;;;13.50;99.90;;;;;;6204710;23;20555;-66
2021/05/12 07:45:26;;;;;;;14.50;12.20;;;13.60;99.90;;;;;;6206103;22;20634;-66
2021/05/12 07:47:52;;;;;;;14.87;12.13;;;13.60;99.90;;;;;;6203809;23;20578;-66
2021/05/12 07:50:18;;;;;;;13.90;12.33;;;13.50;99.90;;;;;;6205029;23;20273;-66
2021/05/12 07:52:46;;;;;;;14.23;12.70;;;13.60;99.90;;;;;;6205076;23;21144;-66
2021/05/12 07:55:11;;;;;;;19.37;14.23;;;13.70;99.90;;;;;;6202768;23;20587;-66
2021/05/12 07:57:39;;;;;;;13.97;12.57;;;13.80;99.90;;;;;;6178379;23;20671;-67
2021/05/12 08:00:06;;;;;;;14.83;11.70;;;13.80;99.90;;;;;;6206873;23;20156;-66
2021/05/12 08:02:32;;;;;;;15.07;11.83;;;13.90;99.90;;;;;;6159663;23;20645;-92
2021/05/12 08:04:57;;;;;;;12.30;11.07;;;13.90;99.90;;;;;;6167136;22;20633;-93
2021/05/12 08:07:23;;;;;;;12.90;11.50;;;14.10;99.90;;;;;;6170898;22;20190;-93
2021/05/12 08:09:49;;;;;;;13.40;11.00;;;14.00;99.90;;;;;;6169943;22;20200;-91
2021/05/12 08:12:15;;;;;;;13.90;11.50;;;14.00;99.90;;;;;;6164586;22;20693;-92
2021/05/12 08:14:40;;;;;;;11.70;10.50;;;14.00;99.90;;;;;;6142076;23;20253;-91
2021/05/12 08:17:06;;;;;;;12.40;11.10;;;14.10;99.90;;;;;;6143061;23;20141;-92
2021/05/12 08:19:31;;;;;;;11.50;10.30;;;14.10;99.90;;;;;;6145300;23;20173;-93
2021/05/12 08:21:57;;;;;;;12.37;10.33;;;14.20;99.90;;;;;;6142817;23;20181;-90
2021/05/12 08:24:23;;;;;;;13.13;10.60;;;14.20;99.90;;;;;;6145089;23;20312;-93
2021/05/12 08:26:48;;;;;;;12.10;9.57;;;14.30;99.90;;;;;;6145461;23;20172;-91
2021/05/12 08:29:16;;;;;;;11.60;10.40;;;14.40;99.90;;;;;;6144023;23;20204;-91
2021/05/12 08:31:44;;;;;;;13.33;9.90;;;14.40;99.90;;;;;;6167628;23;20253;-93
2021/05/12 08:34:10;;;;;;;12.10;10.60;;;14.50;99.90;;;;;;6140359;23;20614;-92
2021/05/12 08:36:36;;;;;;;12.30;8.53;;;14.40;99.90;;;;;;6136589;23;20626;-92
2021/05/12 08:39:04;;;;;;;12.63;9.23;;;14.50;99.90;;;;;;6140761;23;20185;-90
2021/05/12 08:41:33;;;;;;;13.73;9.73;;;14.70;99.90;;;;;;6137992;23;20890;-91
2021/05/12 08:44:00;;;;;;;10.83;8.40;;;14.50;99.90;;;;;;6137529;23;20592;-91
2021/05/12 08:46:26;;;;;;;10.73;8.73;;;14.60;99.90;;;;;;6161625;23;20567;-92
2021/05/12 08:48:52;;;;;;;10.37;9.13;;;14.80;99.90;;;;;;6133373;23;20676;-91
2021/05/12 08:51:18;;;;;;;9.90;8.90;;;14.60;99.90;;;;;;6135832;23;21160;-92
2021/05/12 08:53:44;;;;;;;12.90;10.33;;;14.60;99.90;;;;;;6137874;23;20221;-92
2021/05/12 08:56:09;;;;;;;10.30;8.70;;;14.60;99.90;;;;;;6140064;23;20200;-92
2021/05/12 08:58:35;;;;;;;11.97;10.30;;;14.70;99.90;;;;;;6139354;23;20591;-90
2021/05/12 09:01:01;;;;;;;12.30;9.87;;;14.90;99.90;;;;;;6136868;23;20744;-92
2021/05/12 09:03:27;;;;;;;9.57;8.63;;;14.70;99.90;;;;;;6136196;23;20209;-91
2021/05/12 09:05:57;;;;;;;11.90;9.27;;;14.80;99.90;;;;;;6135856;23;20912;-94
2021/05/12 09:08:27;;;;;;;12.70;9.87;;;14.80;99.90;;;;;;6137821;23;20767;-92
2021/05/12 09:10:55;;;;;;;11.67;9.50;;;14.80;99.90;;;;;;6133831;23;20601;-92
2021/05/12 09:13:36;;;;;;;10.87;8.80;;;14.90;99.90;;;;;;6130978;23;20581;-90
2021/05/12 09:16:26;;;;;;;10.90;9.20;;;15.00;99.90;;;;;;6135636;23;20577;-92
2021/05/12 09:19:11;;;;;;;11.13;8.20;;;14.90;99.90;;;;;;6171940;23;20577;-93
2021/05/12 09:21:56;;;;;;;12.80;9.10;;;15.00;99.90;;;;;;6167941;23;21222;-91
2021/05/12 09:24:34;;;;;;;8.90;8.00;;;14.90;99.90;;;;;;6164622;23;20593;-93
2021/05/12 09:27:04;;;;;;;8.00;7.20;;;14.90;99.90;;;;;;6135073;23;21187;-92
2021/05/12 09:29:38;;;;;;;10.13;7.03;;;15.00;99.90;;;;;;6107562;23;20662;-91
2021/05/12 09:32:18;;;;;;;7.27;6.23;;;15.00;99.90;;;;;;6139331;23;20707;-91
2021/05/12 09:34:49;;;;;;;5.90;5.30;;;15.10;99.90;;;;;;6137498;22;20652;-91
2021/05/12 09:37:34;;;;;;;6.50;5.77;;;15.10;99.90;;;;;;6136435;23;20587;-92
2021/05/12 09:40:22;;;;;;;7.13;5.87;;;15.20;99.90;;;;;;6137302;23;20571;-91
2021/05/12 09:43:00;;;;;;;6.67;5.20;;;15.30;99.90;;;;;;6138262;23;20597;-92
2021/05/12 09:45:27;;;;;;;6.33;5.50;;;15.10;99.90;;;;;;6141347;23;20596;-92
2021/05/12 09:48:01;;;;;;;6.47;5.93;;;15.20;99.90;;;;;;6139547;23;20562;-92
2021/05/12 09:50:38;;;;;;;7.50;6.13;;;15.40;99.90;;;;;;6140824;23;20724;-91
2021/05/12 09:53:13;;;;;;;5.93;5.30;;;15.20;99.90;;;;;;6134255;23;20604;-92
2021/05/12 09:55:48;;;;;;;8.50;6.27;;;15.20;99.90;;;;;;6138282;23;20569;-93
2021/05/12 09:58:23;;;;;;;9.60;5.27;;;15.40;99.90;;;;;;6141557;23;20637;-92
2021/05/12 10:00:53;;;;;;;6.63;5.37;;;15.30;99.90;;;;;;6139377;23;20568;-93
2021/05/12 10:05:51;;;;;;;5.93;4.70;;;15.40;99.90;;;;;;6161647;23;20620;-69
2021/05/12 10:08:26;;;;;;;7.73;5.00;;;15.30;99.90;;;;;;6114243;23;20561;-71
2021/05/12 10:11:00;;;;;;;5.87;5.30;;;15.30;99.90;;;;;;6111920;23;20687;-70
2021/05/12 10:13:26;;;;;;;5.83;5.27;;;15.20;99.90;;;;;;6138702;22;21058;-69
2021/05/12 10:15:52;;;;;;;4.60;4.20;;;15.20;99.90;;;;;;6136666;23;20667;-72
2021/05/12 10:18:17;;;;;;;4.93;4.37;;;15.30;99.90;;;;;;6109095;23;20161;-70
2021/05/12 10:20:43;;;;;;;4.40;4.00;;;15.50;99.90;;;;;;6106365;23;20207;-69
2021/05/12 10:23:09;;;;;;;6.80;4.30;;;15.60;99.90;;;;;;6133129;22;20154;-70
2021/05/12 10:25:38;;;;;;;3.77;3.47;;;15.70;99.90;;;;;;6134975;22;20172;-70
2021/05/12 10:28:04;;;;;;;4.07;3.63;;;15.90;99.90;;;;;;6135334;23;20906;-71
2021/05/12 10:30:30;;;;;;;4.87;3.80;;;16.00;99.90;;;;;;6137561;23;20585;-70
2021/05/12 10:32:58;;;;;;;3.70;3.27;;;16.00;99.90;;;;;;6132196;22;21448;-70
2021/05/12 10:35:33;;;;;;;3.57;3.00;;;16.10;99.90;;;;;;6109294;23;20768;-70
2021/05/12 10:38:00;;;;;;;4.80;3.63;;;16.20;99.90;;;;;;6132239;22;20565;-70
2021/05/12 10:40:38;;;;;;;4.07;2.70;;;16.30;99.90;;;;;;6142553;23;20549;-70
2021/05/12 10:43:26;;;;;;;3.23;2.93;;;16.40;99.90;;;;;;6130069;22;20705;-70
2021/05/12 10:46:14;;;;;;;4.10;3.20;;;16.40;99.90;;;;;;6104001;23;20621;-70
2021/05/12 10:48:43;;;;;;;3.90;2.93;;;16.40;99.90;;;;;;6136918;22;20533;-70
2021/05/12 10:51:20;;;;;;;3.10;2.90;;;16.40;99.90;;;;;;6124339;23;20534;-70
2021/05/12 10:53:49;;;;;;;4.07;2.80;;;16.40;99.90;;;;;;6133301;22;20603;-70
2021/05/12 10:56:15;;;;;;;3.60;2.53;;;16.20;99.90;;;;;;6132436;23;21114;-70
2021/05/12 10:59:00;;;;;;;3.97;3.03;;;16.20;99.90;;;;;;6131852;23;20565;-70
2021/05/12 11:01:31;;;;;;;4.20;3.03;;;16.20;99.90;;;;;;6137081;23;20864;-71
2021/05/12 11:04:03;;;;;;;3.60;3.03;;;16.20;99.90;;;;;;6136496;22;20633;-71
2021/05/12 11:06:34;;;;;;;5.20;3.30;;;16.20;99.90;;;;;;6138711;23;20600;-70
2021/05/12 11:09:08;;;;;;;3.57;3.27;;;16.10;99.90;;;;;;6112657;23;20600;-70
2021/05/12 11:11:54;;;;;;;3.80;3.40;;;16.20;99.90;;;;;;6117064;23;20561;-70
2021/05/12 11:14:29;;;;;;;4.37;3.83;;;16.30;99.90;;;;;;6139857;22;20588;-70
2021/05/12 11:17:02;;;;;;;4.50;4.10;;;16.40;99.90;;;;;;6139489;23;20599;-70
2021/05/12 11:19:41;;;;;;;3.83;3.53;;;16.30;99.90;;;;;;6138001;23;20919;-71
2021/05/12 11:33:42;;;;;;;5.70;5.20;;;16.50;99.90;;;;;;6140366;22;20715;-70
2021/05/12 11:36:16;;;;;;;7.93;5.77;;;16.60;99.90;;;;;;6113357;23;20608;-70
2021/05/12 11:38:42;;;;;;;6.80;6.17;;;16.70;99.90;;;;;;6135073;22;20540;-70
2021/05/12 11:41:17;;;;;;;8.40;6.33;;;16.70;99.90;;;;;;6113440;23;20561;-72
2021/05/12 11:43:44;;;;;;;7.37;6.67;;;16.60;99.90;;;;;;6136211;22;21476;-72
2021/05/12 11:46:14;;;;;;;7.93;6.60;;;16.60;99.90;;;;;;6134716;23;20569;-71
2021/05/12 11:48:45;;;;;;;9.57;7.60;;;16.70;99.90;;;;;;6114503;23;21085;-70
2021/05/12 11:51:14;;;;;;;8.87;7.97;;;16.70;99.90;;;;;;6116769;23;20652;-70
2021/05/12 11:53:41;;;;;;;8.80;7.53;;;16.70;99.90;;;;;;6142680;22;21157;-70
2021/05/12 11:56:07;;;;;;;9.77;7.63;;;16.70;99.90;;;;;;6139669;22;20565;-71
2021/05/12 11:58:34;;;;;;;9.40;7.27;;;16.70;99.90;;;;;;6140345;23;20553;-71
2021/05/12 12:01:11;;;;;;;8.17;7.43;;;16.70;99.90;;;;;;6143198;23;20532;-71
2021/05/12 12:03:43;;;;;;;9.30;7.17;;;16.80;99.90;;;;;;6140031;22;20742;-70
2021/05/12 12:06:12;;;;;;;7.17;6.47;;;16.80;99.90;;;;;;6114092;23;20978;-71
2021/05/12 12:08:37;;;;;;;8.07;6.43;;;16.90;99.90;;;;;;6117598;23;20576;-70
2021/05/12 12:11:13;;;;;;;8.60;5.60;;;16.90;99.90;;;;;;6110341;23;20648;-70
2021/05/12 12:13:40;;;;;;;9.13;5.13;;;16.90;99.90;;;;;;6114771;23;20693;-71
2021/05/12 12:16:06;;;;;;;5.87;4.83;;;16.90;99.90;;;;;;6113672;23;20589;-71
2021/05/12 12:18:34;;;;;;;5.37;4.87;;;17.00;99.90;;;;;;6113145;23;20565;-70
2021/05/12 12:21:00;;;;;;;5.83;4.50;;;16.90;99.90;;;;;;6139175;22;20910;-71
2021/05/12 12:23:30;;;;;;;5.57;4.83;;;17.00;99.90;;;;;;6138977;22;21160;-70
2021/05/12 12:26:14;;;;;;;5.80;4.40;;;17.00;99.90;;;;;;6106307;23;21154;-70
2021/05/12 12:28:41;;;;;;;6.20;4.67;;;17.00;99.90;;;;;;6109091;23;21185;-70
2021/05/12 12:31:11;;;;;;;5.20;4.10;;;17.00;99.90;;;;;;6105534;23;20615;-70
2021/05/12 12:33:38;;;;;;;4.50;4.07;;;17.20;99.90;;;;;;6133892;22;20597;-70
2021/05/12 12:36:06;;;;;;;11.77;4.90;;;17.10;99.90;;;;;;6132077;23;20577;-70
2021/05/12 12:38:33;;;;;;;5.90;4.10;;;17.30;99.90;;;;;;6110975;23;20652;-70
2021/05/12 12:41:02;;;;;;;5.70;3.80;;;17.30;99.90;;;;;;6134802;23;20557;-70
2021/05/12 12:43:41;;;;;;;3.83;3.37;;;17.40;99.90;;;;;;6111437;22;20592;-69
2021/05/12 12:46:07;;;;;;;10.23;4.47;;;17.40;99.90;;;;;;6133225;22;20588;-70
2021/05/12 12:48:35;;;;;;;6.60;4.37;;;17.50;99.90;;;;;;6135664;23;21340;-70
2021/05/12 12:51:01;;;;;;;8.77;3.90;;;17.70;99.90;;;;;;6135998;22;20161;-70
2021/05/12 12:53:29;;;;;;;5.53;4.57;;;17.80;99.90;;;;;;6132859;22;20593;-70
2021/05/12 12:56:06;;;;;;;7.90;4.40;;;17.90;99.90;;;;;;6137559;22;20177;-70
2021/05/12 12:58:32;;;;;;;6.40;3.83;;;17.90;99.90;;;;;;6141493;23;20660;-70
2021/05/12 13:00:58;;;;;;;4.70;4.30;;;17.80;99.90;;;;;;6139995;23;21147;-71
2021/05/12 13:03:25;;;;;;;5.13;4.63;;;17.80;99.90;;;;;;6134019;22;20672;-70